Time;durP1;ratioP1;P1;durP2;ratioP2;P2;SDS_P1;SDS_P2;PMS_P1;PMS_P2;Temp;Humidity;BMP_temperature;BMP_pressure;BME280_temperature;BME280_humidity;BME280_pressure;Samples;Min_cycle;Max_cycle;Signal;HPM_P1;HPM_P2
2021/09/07 00:01:16;;;;;;;8.58;5.47;;;;;;;10.88;82.03;98596.86;1785482;80;21004;-78
2021/09/07 00:03:42;;;;;;;10.35;5.72;;;;;;;10.87;81.98;98601.74;1785355;80;21008;-78
2021/09/07 00:06:09;;;;;;;9.80;5.45;;;;;;;10.86;82.33;98599.53;1776602;80;20983;-78
2021/09/07 00:08:35;;;;;;;11.73;5.75;;;;;;;10.86;82.76;98594.67;1749566;80;21457;-77
2021/09/07 00:11:03;;;;;;;9.38;5.75;;;;;;;10.88;81.68;98595.53;1769918;80;20933;-78
2021/09/07 00:13:30;;;;;;;10.65;5.80;;;;;;;10.86;81.69;98594.67;1759292;79;21023;-78
2021/09/07 00:15:57;;;;;;;8.40;5.28;;;;;;;10.87;81.81;98593.31;1755071;80;21022;-78
2021/09/07 00:18:24;;;;;;;9.95;5.47;;;;;;;10.88;81.75;98594.20;1754414;82;21450;-78
2021/09/07 00:20:50;;;;;;;8.13;5.33;;;;;;;10.86;81.57;98594.23;1754550;82;20953;-78
2021/09/07 00:23:17;;;;;;;10.98;6.20;;;;;;;10.83;81.08;98594.28;1770701;80;21010;-78
2021/09/07 00:25:43;;;;;;;7.42;5.25;;;;;;;10.75;81.54;98591.79;1783085;80;21000;-78
2021/09/07 00:28:10;;;;;;;11.35;6.53;;;;;;;10.68;81.31;98588.86;1754360;80;21003;-78
2021/09/07 00:30:37;;;;;;;8.45;5.33;;;;;;;10.61;81.91;98597.39;1751555;80;21553;-78
2021/09/07 00:33:04;;;;;;;8.70;5.83;;;;;;;10.54;82.76;98603.25;1754491;82;20957;-78
2021/09/07 00:35:32;;;;;;;8.28;5.37;;;;;;;10.48;81.70;98602.06;1754559;82;21346;-79
2021/09/07 00:37:59;;;;;;;9.00;5.20;;;;;;;10.41;81.45;98598.62;1769975;80;21003;-78
2021/09/07 00:40:26;;;;;;;9.90;6.15;;;;;;;10.37;81.99;98600.90;1759221;80;20956;-79
2021/09/07 00:42:53;;;;;;;10.10;5.47;;;;;;;10.28;83.00;98595.77;1755372;80;21091;-78
2021/09/07 00:45:20;;;;;;;10.93;6.87;;;;;;;10.24;82.84;98596.72;1760054;81;21015;-78
2021/09/07 00:47:46;;;;;;;10.95;6.20;;;;;;;10.17;83.57;98599.93;1773134;80;20933;-78
2021/09/07 00:50:14;;;;;;;11.95;6.33;;;;;;;10.13;83.06;98597.80;1791249;80;20985;-78
2021/09/07 00:52:42;;;;;;;9.33;5.80;;;;;;;10.09;82.33;98597.89;1791004;80;21015;-78
2021/09/07 00:55:10;;;;;;;12.37;6.72;;;;;;;10.03;82.56;98597.11;1791238;80;20988;-78
2021/09/07 00:57:37;;;;;;;9.98;5.83;;;;;;;9.97;84.30;98589.72;1791374;80;21350;-78
2021/09/07 01:00:09;;;;;;;10.70;6.00;;;;;;;9.95;82.80;98586.20;1790904;80;21008;-78
2021/09/07 01:02:37;;;;;;;9.63;5.85;;;;;;;9.89;83.75;98596.47;1791287;80;20987;-79
2021/09/07 01:05:08;;;;;;;8.15;5.78;;;;;;;9.87;82.74;98596.92;1805728;79;21430;-79
2021/09/07 01:07:36;;;;;;;12.75;6.90;;;;;;;9.84;83.50;98596.53;1770063;80;20975;-79
2021/09/07 01:10:07;;;;;;;8.23;5.60;;;;;;;9.82;84.02;98596.13;1760229;81;21083;-78
2021/09/07 01:12:36;;;;;;;8.68;5.83;;;;;;;9.80;84.26;98597.95;1779330;80;21616;-78
2021/09/07 01:15:07;;;;;;;8.40;5.47;;;;;;;9.76;84.70;98589.19;1791296;80;20984;-78
2021/09/07 01:17:33;;;;;;;12.45;6.25;;;;;;;9.73;83.57;98591.44;1791249;80;21007;-78
2021/09/07 01:20:02;;;;;;;8.60;5.20;;;;;;;9.74;84.18;98592.29;1791208;80;21028;-77
2021/09/07 01:22:29;;;;;;;7.58;5.20;;;;;;;9.74;83.41;98590.97;1791319;80;21398;-78
2021/09/07 01:24:55;;;;;;;8.10;5.67;;;;;;;9.78;83.08;98596.64;1791450;80;20996;-78
2021/09/07 01:27:22;;;;;;;7.70;5.20;;;;;;;9.79;83.89;98594.41;1791295;80;20984;-77
2021/09/07 01:29:50;;;;;;;7.37;5.22;;;;;;;9.79;83.31;98596.20;1775584;79;21437;-77
2021/09/07 01:32:18;;;;;;;8.68;5.22;;;;;;;9.76;83.29;98593.16;1768928;80;20956;-77
2021/09/07 01:34:46;;;;;;;13.50;6.12;;;;;;;9.79;83.16;98593.55;1768503;80;21008;-78
2021/09/07 01:37:13;;;;;;;10.43;5.00;;;;;;;9.82;82.76;98600.10;1762139;80;20984;-78
2021/09/07 01:39:40;;;;;;;9.08;5.10;;;;;;;9.83;83.04;98592.14;1791348;80;20956;-78
2021/09/07 01:42:08;;;;;;;6.65;5.00;;;;;;;9.80;82.96;98596.16;1791251;80;20960;-78
2021/09/07 01:44:42;;;;;;;7.80;4.90;;;;;;;9.78;83.04;98593.99;1786927;80;21044;-79
2021/09/07 01:47:10;;;;;;;9.23;4.97;;;;;;;9.83;83.08;98597.87;1785802;80;21465;-77
2021/09/07 01:49:38;;;;;;;7.92;5.37;;;;;;;9.86;83.17;98596.07;1782632;79;21470;-78
2021/09/07 01:52:15;;;;;;;7.75;5.40;;;;;;;9.87;82.78;98595.16;1779485;80;20996;-78
2021/09/07 01:54:46;;;;;;;8.20;5.12;;;;;;;9.85;83.43;98596.09;1729065;81;20988;-78
2021/09/07 01:57:15;;;;;;;9.80;5.45;;;;;;;9.80;82.87;98588.21;1758616;80;21414;-78
2021/09/07 01:59:43;;;;;;;8.65;5.92;;;;;;;9.80;82.64;98592.65;1775642;80;20973;-78
2021/09/07 02:02:11;;;;;;;8.38;5.60;;;;;;;9.73;82.72;98594.52;1785423;80;21428;-78
2021/09/07 02:04:37;;;;;;;8.08;5.28;;;;;;;9.66;82.55;98596.39;1785584;80;20988;-79
2021/09/07 02:07:05;;;;;;;9.73;5.42;;;;;;;9.60;83.59;98593.85;1785444;80;20977;-79
2021/09/07 02:09:31;;;;;;;10.40;6.28;;;;;;;9.49;83.87;98586.08;1785576;80;20944;-78
2021/09/07 02:11:59;;;;;;;7.53;4.95;;;;;;;9.45;83.86;98588.34;1785595;80;21373;-78
2021/09/07 02:14:26;;;;;;;9.75;5.37;;;;;;;9.41;83.38;98585.31;1785516;80;21035;-77
2021/09/07 02:16:53;;;;;;;9.25;5.72;;;;;;;9.35;83.27;98585.83;1785473;80;20957;-78
2021/09/07 02:19:19;;;;;;;8.73;5.42;;;;;;;9.32;82.74;98595.16;1781189;79;20965;-78
2021/09/07 02:21:47;;;;;;;7.92;5.60;;;;;;;9.28;84.49;98589.48;1771439;79;20977;-78
2021/09/07 02:24:14;;;;;;;10.40;5.85;;;;;;;9.27;83.13;98582.87;1778951;80;21004;-78
2021/09/07 02:26:43;;;;;;;9.00;5.65;;;;;;;9.20;85.09;98582.98;1763436;79;21391;-79
2021/09/07 02:29:10;;;;;;;7.05;4.80;;;;;;;9.15;84.41;98582.61;1736806;82;21406;-79
2021/09/07 02:31:36;;;;;;;10.18;5.45;;;;;;;9.07;86.05;98582.72;1721923;83;21030;-79
2021/09/07 02:34:03;;;;;;;10.05;5.83;;;;;;;9.06;85.70;98585.80;1785610;80;20945;-78
2021/09/07 02:36:30;;;;;;;9.83;5.83;;;;;;;9.05;84.48;98585.84;1785295;80;21576;-78
2021/09/07 02:38:58;;;;;;;9.43;5.87;;;;;;;9.06;83.80;98591.09;1785558;80;20968;-78
2021/09/07 02:41:25;;;;;;;8.70;5.58;;;;;;;9.06;84.58;98583.16;1784763;80;20985;-78
2021/09/07 02:43:54;;;;;;;10.25;5.35;;;;;;;9.06;84.46;98588.44;1772978;79;21028;-78
2021/09/07 02:46:21;;;;;;;8.48;5.75;;;;;;;9.04;84.42;98584.07;1794796;79;20976;-77
2021/09/07 02:48:47;;;;;;;10.68;6.08;;;;;;;9.03;83.87;98584.97;1769486;79;21002;-77
2021/09/07 02:51:15;;;;;;;9.25;6.12;;;;;;;9.01;84.00;98589.42;1756945;82;21018;-78
2021/09/07 02:53:41;;;;;;;12.45;5.83;;;;;;;8.99;83.71;98582.83;1800451;79;21437;-77
2021/09/07 02:56:08;;;;;;;8.48;6.12;;;;;;;9.00;83.72;98585.03;1748401;82;21017;-78
2021/09/07 02:58:34;;;;;;;10.13;5.75;;;;;;;8.98;84.80;98579.30;1740233;82;21398;-78
2021/09/07 03:01:01;;;;;;;9.43;5.90;;;;;;;8.96;84.42;98583.74;1721775;83;21033;-78
2021/09/07 03:03:28;;;;;;;12.73;6.35;;;;;;;8.95;83.92;98583.76;1758477;80;21020;-78
2021/09/07 03:05:58;;;;;;;10.93;6.85;;;;;;;8.92;84.89;98583.35;1754384;82;20956;-79
2021/09/07 03:08:24;;;;;;;11.48;6.03;;;;;;;8.88;85.08;98586.93;1757248;79;20971;-78
2021/09/07 03:10:52;;;;;;;10.88;6.00;;;;;;;8.87;84.07;98590.91;1780097;79;21004;-78
2021/09/07 03:13:18;;;;;;;11.12;5.67;;;;;;;8.86;84.29;98587.41;1783646;80;20968;-78
2021/09/07 03:15:46;;;;;;;7.90;4.95;;;;;;;8.84;84.32;98582.57;1754599;82;21498;-77
2021/09/07 03:18:14;;;;;;;8.85;5.28;;;;;;;8.84;83.91;98586.10;1771036;80;20988;-77
2021/09/07 03:20:42;;;;;;;9.40;5.70;;;;;;;8.84;84.14;98586.10;1785416;80;20980;-78
2021/09/07 03:23:09;;;;;;;11.25;5.65;;;;;;;8.90;84.13;98592.20;1785450;80;20957;-76
2021/09/07 03:25:36;;;;;;;11.10;5.80;;;;;;;8.90;83.64;98594.84;1785323;80;20984;-77
2021/09/07 03:28:04;;;;;;;7.92;4.85;;;;;;;8.92;83.77;98589.08;1784893;80;20957;-78
2021/09/07 03:30:31;;;;;;;11.05;5.20;;;;;;;8.95;83.83;98589.05;1754533;82;21051;-77
2021/09/07 03:33:00;;;;;;;10.00;5.20;;;;;;;8.97;83.75;98593.42;1754575;79;20976;-77
2021/09/07 03:35:30;;;;;;;9.80;4.97;;;;;;;8.99;84.10;98592.08;1754865;79;21478;-78
2021/09/07 03:37:56;;;;;;;7.97;4.33;;;;;;;9.02;84.00;98596.02;1754567;80;20940;-77
2021/09/07 03:40:24;;;;;;;9.95;5.05;;;;;;;9.01;83.87;98591.59;1768562;80;20969;-77
2021/09/07 03:42:51;;;;;;;9.35;5.95;;;;;;;9.01;83.92;98594.24;1785510;80;20988;-77
2021/09/07 03:45:18;;;;;;;8.03;5.30;;;;;;;9.00;84.05;98598.26;1790147;80;21024;-77
2021/09/07 03:47:47;;;;;;;21.48;6.10;;;;;;;8.96;84.11;98602.25;1785418;80;20965;-77
2021/09/07 03:50:15;;;;;;;10.88;5.10;;;;;;;8.94;83.94;98602.73;1744590;82;21410;-77
2021/09/07 03:52:44;;;;;;;8.65;5.35;;;;;;;8.90;83.64;98606.30;1712626;83;21432;-76
2021/09/07 03:55:13;;;;;;;10.18;5.40;;;;;;;8.89;83.48;98608.96;1715504;83;21180;-77
2021/09/07 03:57:40;;;;;;;11.73;5.33;;;;;;;8.87;83.16;98608.09;1706324;84;21526;-76
2021/09/07 04:00:10;;;;;;;10.58;5.17;;;;;;;8.81;83.56;98607.27;1721581;83;21032;-76
2021/09/07 04:02:44;;;;;;;11.18;5.50;;;;;;;8.71;83.99;98613.13;1709964;83;20974;-76
2021/09/07 04:05:11;;;;;;;8.38;5.50;;;;;;;8.68;83.37;98610.98;1706540;84;21013;-76
2021/09/07 04:07:38;;;;;;;13.85;5.72;;;;;;;8.65;82.73;98615.86;1719406;83;21486;-76
2021/09/07 04:10:07;;;;;;;12.28;5.62;;;;;;;8.60;83.07;98615.47;1714126;83;21420;-76
2021/09/07 04:12:35;;;;;;;10.18;5.50;;;;;;;8.54;82.67;98623.02;1721430;83;21055;-76
2021/09/07 04:15:06;;;;;;;9.93;5.70;;;;;;;8.50;82.73;98626.55;1721863;83;21001;-76
2021/09/07 04:17:32;;;;;;;8.63;5.40;;;;;;;8.42;84.66;98616.95;1719884;83;21411;-76
2021/09/07 04:20:00;;;;;;;11.60;5.60;;;;;;;8.41;83.24;98622.24;1717032;83;20988;-76
2021/09/07 04:22:26;;;;;;;8.75;5.12;;;;;;;8.40;83.75;98617.42;1734808;83;20989;-76
2021/09/07 04:24:53;;;;;;;11.50;5.30;;;;;;;8.40;83.92;98621.39;1712266;82;20990;-78
2021/09/07 04:27:20;;;;;;;15.32;6.70;;;;;;;8.39;83.99;98616.97;1717791;83;21004;-78
2021/09/07 04:29:46;;;;;;;9.18;6.17;;;;;;;8.41;84.38;98616.53;1712231;82;20996;-79
2021/09/07 04:32:12;;;;;;;8.80;5.87;;;;;;;8.38;83.97;98619.19;1729675;82;21474;-79
2021/09/07 04:34:39;;;;;;;12.05;5.62;;;;;;;8.36;83.60;98613.06;1706236;84;21016;-79
2021/09/07 04:37:06;;;;;;;8.75;5.85;;;;;;;8.33;84.37;98614.41;1688341;84;21013;-79
2021/09/07 04:39:32;;;;;;;12.82;5.85;;;;;;;8.36;83.37;98613.49;1706454;84;21124;-78
2021/09/07 04:41:58;;;;;;;12.00;5.55;;;;;;;8.35;84.89;98613.08;1706579;84;21036;-78
2021/09/07 04:44:25;;;;;;;11.12;6.22;;;;;;;8.36;83.27;98611.74;1704380;83;21032;-78
2021/09/07 04:46:54;;;;;;;10.00;6.12;;;;;;;8.39;84.06;98618.76;1700942;84;21540;-78
2021/09/07 04:49:23;;;;;;;14.30;6.87;;;;;;;8.40;83.94;98618.75;1712293;81;21011;-78
2021/09/07 04:51:49;;;;;;;9.23;5.85;;;;;;;8.43;84.06;98621.80;1715422;83;21049;-78
2021/09/07 04:54:16;;;;;;;10.35;6.70;;;;;;;8.47;83.86;98623.95;1730000;82;21482;-79
2021/09/07 04:56:42;;;;;;;10.53;6.00;;;;;;;8.48;84.12;98618.66;1705083;82;21005;-77
2021/09/07 04:59:09;;;;;;;10.55;6.22;;;;;;;8.53;83.32;98621.27;1700961;84;21093;-77
2021/09/07 05:01:35;;;;;;;8.35;6.05;;;;;;;8.55;83.01;98621.68;1719773;83;21446;-77
2021/09/07 05:04:01;;;;;;;12.18;6.83;;;;;;;8.54;82.96;98626.97;1785437;80;21016;-77
2021/09/07 05:06:28;;;;;;;8.98;6.08;;;;;;;8.54;83.09;98625.22;1785409;80;21012;-78
2021/09/07 05:08:54;;;;;;;10.00;5.35;;;;;;;8.61;83.47;98631.31;1785584;80;21398;-78
2021/09/07 05:11:21;;;;;;;10.05;5.40;;;;;;;8.66;83.02;98633.89;1785449;80;21008;-78
2021/09/07 05:13:48;;;;;;;10.80;5.95;;;;;;;8.73;83.20;98630.30;1772526;79;21024;-78
2021/09/07 05:16:14;;;;;;;11.95;5.55;;;;;;;8.83;82.86;98635.90;1761158;80;21052;-76
2021/09/07 05:18:41;;;;;;;9.40;5.92;;;;;;;8.92;83.00;98631.38;1754433;82;20996;-76
2021/09/07 05:21:08;;;;;;;9.08;5.17;;;;;;;9.03;82.82;98634.77;1760400;80;20955;-77
2021/09/07 05:23:37;;;;;;;12.78;5.65;;;;;;;9.13;82.71;98637.30;1785451;80;20973;-77
2021/09/07 05:26:05;;;;;;;11.55;5.50;;;;;;;9.24;82.71;98637.59;1785332;80;21012;-76
2021/09/07 05:28:32;;;;;;;10.70;5.60;;;;;;;9.36;82.24;98640.94;1783614;79;21007;-77
2021/09/07 05:30:59;;;;;;;13.10;5.47;;;;;;;9.44;81.79;98639.08;1771015;80;21031;-77
2021/09/07 05:33:27;;;;;;;12.30;5.58;;;;;;;9.50;80.63;98643.38;1785152;80;21019;-77
2021/09/07 05:35:54;;;;;;;9.25;5.80;;;;;;;9.58;80.54;98641.50;1778272;80;21004;-77
2021/09/07 05:38:21;;;;;;;9.33;5.72;;;;;;;9.64;80.50;98637.90;1759328;80;21044;-78
2021/09/07 05:40:48;;;;;;;11.55;6.25;;;;;;;9.72;80.50;98641.28;1758327;80;20991;-78
2021/09/07 05:43:14;;;;;;;10.50;6.45;;;;;;;9.80;80.56;98637.19;1754602;82;20995;-77
2021/09/07 05:45:41;;;;;;;10.40;5.97;;;;;;;9.87;79.48;98636.20;1762028;80;21031;-76
2021/09/07 05:48:07;;;;;;;11.43;5.97;;;;;;;9.95;79.63;98640.48;1785367;80;20963;-76
2021/09/07 05:50:34;;;;;;;10.98;5.78;;;;;;;9.99;79.62;98641.75;1781987;80;21336;-77
2021/09/07 05:53:01;;;;;;;11.85;6.08;;;;;;;10.05;79.08;98644.72;1710164;83;21054;-77
2021/09/07 05:55:28;;;;;;;11.65;5.67;;;;;;;10.08;79.09;98646.47;1709657;83;20941;-77
2021/09/07 05:57:55;;;;;;;9.28;6.05;;;;;;;10.14;79.22;98643.70;1722597;83;21018;-78
2021/09/07 06:00:22;;;;;;;10.95;7.08;;;;;;;10.19;78.69;98653.77;1698237;84;20957;-77
2021/09/07 06:02:52;;;;;;;10.03;6.65;;;;;;;10.24;78.86;98649.27;1707175;83;21028;-78
2021/09/07 06:05:18;;;;;;;10.30;5.47;;;;;;;10.30;78.95;98651.80;1722517;83;20983;-77
2021/09/07 06:07:44;;;;;;;12.23;6.30;;;;;;;10.36;78.88;98649.50;1706481;83;20973;-77
2021/09/07 06:10:11;;;;;;;11.48;6.90;;;;;;;10.40;78.44;98652.96;1706598;84;20965;-77
2021/09/07 06:12:38;;;;;;;9.30;6.10;;;;;;;10.44;78.48;98653.36;1730422;83;21059;-77
2021/09/07 06:15:06;;;;;;;9.73;6.15;;;;;;;10.50;78.17;98649.73;1706560;84;20997;-77
2021/09/07 06:17:33;;;;;;;9.30;5.95;;;;;;;10.54;78.23;98649.64;1706636;84;21016;-77
2021/09/07 06:19:59;;;;;;;9.20;6.28;;;;;;;10.61;77.84;98649.07;1706599;84;21044;-76
2021/09/07 06:22:30;;;;;;;10.90;6.92;;;;;;;10.68;77.85;98649.83;1714245;83;21057;-78
2021/09/07 06:24:55;;;;;;;9.90;6.20;;;;;;;10.74;77.93;98652.36;1734725;82;20985;-78
2021/09/07 06:27:22;;;;;;;9.30;5.75;;;;;;;10.81;77.76;98651.31;1735926;83;20974;-77
2021/09/07 06:29:48;;;;;;;10.30;5.97;;;;;;;10.89;77.65;98648.54;1729351;82;20981;-76
2021/09/07 06:32:16;;;;;;;11.83;6.20;;;;;;;10.96;77.35;98654.13;1728295;83;21003;-76
2021/09/07 06:34:44;;;;;;;20.62;7.67;;;;;;;11.06;77.10;98650.84;1706519;84;21034;-77
2021/09/07 06:37:11;;;;;;;10.80;5.75;;;;;;;11.18;76.74;98660.77;1714936;83;20970;-78
2021/09/07 06:39:38;;;;;;;8.83;5.92;;;;;;;11.32;76.48;98658.69;1717507;83;21076;-78
2021/09/07 06:42:06;;;;;;;9.13;5.87;;;;;;;11.45;76.26;98655.30;1706332;84;20980;-77
2021/09/07 06:44:33;;;;;;;8.45;5.53;;;;;;;11.56;76.35;98653.73;1705640;83;21009;-76
2021/09/07 06:47:00;;;;;;;8.98;5.62;;;;;;;11.65;75.70;98654.41;1701167;83;21048;-77
2021/09/07 06:49:28;;;;;;;16.80;7.85;;;;;;;11.72;75.57;98655.55;1700806;84;21013;-79
2021/09/07 06:51:57;;;;;;;13.43;6.87;;;;;;;11.81;75.31;98653.60;1710418;81;21021;-77
2021/09/07 06:54:24;;;;;;;12.40;5.80;;;;;;;11.92;75.05;98661.32;1718271;81;21092;-76
2021/09/07 06:56:51;;;;;;;12.90;6.45;;;;;;;12.01;74.98;98658.44;1771290;80;21051;-77
2021/09/07 06:59:17;;;;;;;8.38;5.42;;;;;;;12.10;74.55;98662.23;1768918;80;21386;-78
2021/09/07 07:01:44;;;;;;;8.13;5.35;;;;;;;12.21;74.23;98668.58;1770821;80;21032;-80
2021/09/07 07:04:10;;;;;;;8.90;5.80;;;;;;;12.33;73.82;98662.08;1768975;80;21445;-78
2021/09/07 07:06:37;;;;;;;11.80;8.00;;;;;;;12.42;73.56;98657.00;1768801;80;20992;-77
2021/09/07 07:09:03;;;;;;;28.57;17.40;;;;;;;12.52;73.09;98666.47;1770262;80;21429;-78
2021/09/07 07:11:30;;;;;;;11.75;6.92;;;;;;;12.64;73.32;98665.72;1770634;80;20948;-79
2021/09/07 07:13:57;;;;;;;68.05;43.30;;;;;;;12.74;72.63;98666.35;1780942;80;20984;-77
2021/09/07 07:16:23;;;;;;;9.50;5.42;;;;;;;12.87;71.93;98672.20;1785582;80;20964;-79
2021/09/07 07:18:50;;;;;;;9.10;6.22;;;;;;;12.99;70.32;98666.99;1780043;79;20996;-78
2021/09/07 07:21:16;;;;;;;7.33;4.97;;;;;;;13.10;71.04;98656.90;1761324;79;20955;-78
2021/09/07 07:23:43;;;;;;;6.35;4.75;;;;;;;13.19;71.26;98670.38;1753779;82;21111;-79
2021/09/07 07:26:10;;;;;;;11.43;5.22;;;;;;;13.29;71.31;98677.17;1753759;81;21380;-79
2021/09/07 07:28:36;;;;;;;9.60;5.03;;;;;;;13.39;71.02;98672.91;1773123;79;21023;-78
2021/09/07 07:31:03;;;;;;;7.28;4.97;;;;;;;13.48;70.77;98671.34;1766640;79;21031;-79
2021/09/07 07:33:29;;;;;;;10.58;5.50;;;;;;;13.58;70.91;98674.60;1753894;82;21429;-82
2021/09/07 07:35:56;;;;;;;9.08;4.60;;;;;;;13.65;70.50;98674.81;1773363;80;21008;-81
2021/09/07 07:38:22;;;;;;;8.63;5.20;;;;;;;13.73;70.11;98666.13;1784871;80;20985;-78
2021/09/07 07:40:49;;;;;;;7.72;4.87;;;;;;;13.83;70.41;98678.68;1784881;80;20988;-80
2021/09/07 07:43:16;;;;;;;9.88;5.00;;;;;;;13.98;68.35;98677.77;1784407;80;21043;-81
2021/09/07 07:45:43;;;;;;;7.03;4.90;;;;;;;14.11;68.36;98680.91;1785141;80;21430;-80
2021/09/07 07:48:10;;;;;;;10.08;5.12;;;;;;;14.20;68.48;98681.94;1784794;80;20976;-80
2021/09/07 07:50:36;;;;;;;38.92;24.32;;;;;;;14.29;68.31;98686.11;1784809;80;21035;-81
2021/09/07 07:53:03;;;;;;;14.05;7.83;;;;;;;14.38;68.09;98685.77;1784991;79;21031;-81
2021/09/07 07:55:30;;;;;;;14.47;9.38;;;;;;;14.49;68.16;98684.56;1755853;79;20965;-80
2021/09/07 07:57:57;;;;;;;8.80;5.72;;;;;;;14.59;67.56;98687.31;1762621;80;20940;-81
2021/09/07 08:00:24;;;;;;;7.03;4.40;;;;;;;14.69;66.91;98688.33;1771601;79;20942;-82
2021/09/07 08:02:51;;;;;;;9.13;5.15;;;;;;;14.76;66.39;98688.53;1689008;82;21001;-82
2021/09/07 08:05:17;;;;;;;11.05;5.12;;;;;;;14.84;66.27;98682.92;1692541;85;21463;-82
2021/09/07 08:07:46;;;;;;;9.03;5.00;;;;;;;14.92;65.19;98687.52;1760898;80;20980;-81
2021/09/07 08:10:13;;;;;;;7.12;4.12;;;;;;;15.01;64.95;98680.52;1784857;80;20977;-81
2021/09/07 08:12:41;;;;;;;5.92;4.25;;;;;;;15.14;64.42;98683.60;1784759;80;21059;-82
2021/09/07 08:15:08;;;;;;;9.43;4.75;;;;;;;15.25;64.30;98681.87;1784441;80;20984;-84
2021/09/07 08:17:34;;;;;;;7.58;4.25;;;;;;;15.37;61.90;98680.99;1784341;79;20945;-84
2021/09/07 08:20:01;;;;;;;7.22;4.60;;;;;;;15.50;62.48;98681.38;1764913;79;21079;-86
2021/09/07 08:22:27;;;;;;;12.43;5.28;;;;;;;15.61;62.62;98680.98;1757631;79;20977;-84
2021/09/07 08:24:54;;;;;;;11.33;5.12;;;;;;;15.69;63.11;98677.06;1783986;80;20957;-81
2021/09/07 08:27:20;;;;;;;11.28;5.40;;;;;;;15.76;62.66;98676.81;1785029;80;21019;-82
2021/09/07 08:29:47;;;;;;;8.75;5.85;;;;;;;15.85;62.47;98677.78;1763111;80;20984;-82
2021/09/07 08:32:14;;;;;;;9.63;5.45;;;;;;;15.93;62.71;98676.13;1754166;82;21095;-86
2021/09/07 08:34:40;;;;;;;9.83;5.25;;;;;;;16.01;62.48;98671.84;1753847;82;20996;-87
2021/09/07 08:37:08;;;;;;;9.10;5.00;;;;;;;16.09;62.74;98673.28;1739716;80;23924;-84
2021/09/07 08:39:34;;;;;;;6.75;4.60;;;;;;;16.20;62.38;98672.81;1785094;80;21425;-84
2021/09/07 08:42:01;;;;;;;8.10;4.78;;;;;;;16.34;62.12;98676.27;1785312;80;21011;-83
2021/09/07 08:44:28;;;;;;;10.38;5.95;;;;;;;16.43;61.05;98673.66;1784882;80;21012;-83
2021/09/07 08:46:55;;;;;;;89.70;53.80;;;;;;;16.57;61.28;98673.05;1759811;79;22039;-83
2021/09/07 08:49:21;;;;;;;78.67;47.13;;;;;;;16.66;61.53;98675.81;1756608;80;20960;-83
2021/09/07 08:51:48;;;;;;;12.73;7.25;;;;;;;16.76;60.94;98677.61;1754051;82;20981;-82
2021/09/07 08:54:15;;;;;;;10.35;5.70;;;;;;;16.87;60.50;98683.83;1766372;80;21449;-82
2021/09/07 08:56:42;;;;;;;8.93;5.17;;;;;;;16.99;58.75;98675.23;1784661;80;20961;-81
2021/09/07 08:59:09;;;;;;;10.08;5.28;;;;;;;17.18;58.44;98666.41;1783776;80;20945;-81
2021/09/07 09:01:39;;;;;;;7.30;5.17;;;;;;;17.33;58.67;98673.33;1784219;79;20988;-82
2021/09/07 09:04:05;;;;;;;6.70;4.28;;;;;;;17.46;57.87;98671.83;1785056;80;21437;-82
2021/09/07 09:06:32;;;;;;;8.50;4.22;;;;;;;17.55;55.26;98668.71;1784877;80;21028;-81
2021/09/07 09:09:05;;;;;;;7.80;4.28;;;;;;;17.64;56.63;98675.44;1785144;80;21031;-81
2021/09/07 09:11:57;;;;;;;7.90;5.00;;;;;;;17.75;56.23;98669.56;1781208;80;21024;-82
2021/09/07 09:14:34;;;;;;;8.30;4.80;;;;;;;17.85;54.84;98668.63;1776265;80;21224;-85
2021/09/07 09:17:05;;;;;;;13.43;4.42;;;;;;;17.98;55.38;98672.06;1772577;80;21313;-85
2021/09/07 09:19:54;;;;;;;15.45;5.47;;;;;;;18.07;54.11;98672.50;1778865;80;20972;-84
2021/09/07 09:22:23;;;;;;;6.67;3.80;;;;;;;18.17;53.87;98663.53;1784848;80;21011;-84
2021/09/07 09:24:49;;;;;;;4.70;3.25;;;;;;;18.30;50.42;98662.90;1754306;80;20982;-85
2021/09/07 09:27:16;;;;;;;4.60;3.25;;;;;;;18.47;47.71;98658.89;1784898;80;21071;-85
2021/09/07 09:29:43;;;;;;;4.37;2.70;;;;;;;18.54;47.03;98657.23;1758906;80;21063;-84
2021/09/07 09:32:13;;;;;;;6.17;3.58;;;;;;;18.61;46.51;98646.58;1762900;79;21015;-84
2021/09/07 09:34:42;;;;;;;5.87;3.10;;;;;;;18.72;47.10;98641.97;1757207;80;21308;-83
2021/09/07 09:37:13;;;;;;;4.08;2.90;;;;;;;18.90;44.57;98638.80;1769673;80;21047;-84
2021/09/07 09:39:51;;;;;;;4.92;3.30;;;;;;;19.03;42.64;98650.21;1754100;82;21083;-84
2021/09/07 09:42:31;;;;;;;6.08;2.95;;;;;;;19.07;40.45;98642.42;1766140;80;21000;-83
2021/09/07 09:45:06;;;;;;;4.95;2.75;;;;;;;19.10;39.59;98639.58;1785212;80;21462;-79
2021/09/07 09:47:43;;;;;;;4.40;2.75;;;;;;;19.19;41.13;98645.77;1784733;80;21020;-80
2021/09/07 09:50:14;;;;;;;3.92;2.80;;;;;;;19.23;41.44;98635.24;1784952;80;21012;-78
2021/09/07 09:52:43;;;;;;;4.03;2.80;;;;;;;19.27;38.88;98634.63;1778234;79;21529;-78
2021/09/07 09:55:14;;;;;;;8.03;3.12;;;;;;;19.33;40.53;98626.67;1771007;79;20996;-76
2021/09/07 09:57:41;;;;;;;6.10;3.02;;;;;;;19.42;41.82;98634.72;1761679;80;20980;-77
2021/09/07 10:00:13;;;;;;;8.00;2.90;;;;;;;19.53;42.30;98629.60;1754576;80;21015;-77
2021/09/07 10:02:42;;;;;;;4.65;3.25;;;;;;;19.60;42.95;98630.13;1753410;82;21036;-76
2021/09/07 10:05:11;;;;;;;5.95;3.62;;;;;;;19.70;44.43;98629.11;1754144;82;21074;-77
2021/09/07 10:07:38;;;;;;;4.50;3.05;;;;;;;19.74;43.94;98633.36;1759448;80;20972;-76
2021/09/07 10:10:06;;;;;;;6.20;3.22;;;;;;;19.83;44.36;98630.61;1784833;80;21441;-78
2021/09/07 10:12:46;;;;;;;7.58;3.35;;;;;;;19.92;44.86;98624.23;1778635;80;21006;-77
2021/09/07 10:15:24;;;;;;;4.58;2.80;;;;;;;20.02;43.96;98624.58;1716797;83;21356;-77
2021/09/07 10:17:51;;;;;;;6.22;3.50;;;;;;;20.14;40.22;98618.11;1710337;82;21612;-77
2021/09/07 10:20:54;;;;;;;7.37;3.35;;;;;;;20.30;44.46;98614.88;1765869;80;21088;-76
2021/09/07 10:25:55;;;;;;;4.28;2.67;;;;;;;20.55;43.29;98609.86;1797881;79;20997;-76
2021/09/07 10:28:45;;;;;;;4.17;2.85;;;;;;;20.68;39.38;98607.28;1759830;80;21463;-76
2021/09/07 10:31:18;;;;;;;4.55;2.90;;;;;;;20.82;36.83;98618.53;1776872;80;20976;-78
2021/09/07 10:33:53;;;;;;;6.03;2.90;;;;;;;20.82;37.52;98622.11;1767391;80;20944;-76
2021/09/07 10:36:26;;;;;;;4.40;3.22;;;;;;;20.82;37.35;98612.67;1793775;79;21024;-77
2021/09/07 10:39:02;;;;;;;13.62;10.28;;;;;;;21.15;37.70;98607.11;1764979;80;21047;-78
2021/09/07 10:41:41;;;;;;;11.45;8.93;;;;;;;22.41;38.10;98598.90;1771162;80;21070;-79
2021/09/07 10:44:31;;;;;;;4.30;2.98;;;;;;;24.12;37.57;98604.33;1751922;80;21004;-78
2021/09/07 10:47:11;;;;;;;4.40;2.80;;;;;;;25.56;29.59;98590.47;1728439;80;21027;-78
2021/09/07 10:49:49;;;;;;;3.90;2.80;;;;;;;26.18;26.82;98595.32;1774579;79;21428;-80
2021/09/07 10:52:30;;;;;;;4.30;3.02;;;;;;;27.12;30.17;98593.67;1778157;80;21386;-77
2021/09/07 10:55:15;;;;;;;4.25;3.40;;;;;;;28.20;30.12;98593.05;1761620;80;21408;-78
2021/09/07 10:57:49;;;;;;;3.92;3.25;;;;;;;29.21;30.75;98592.22;1771105;80;21111;-78
2021/09/07 11:00:26;;;;;;;;;;;;;;;30.00;27.25;98588.53;1785796;80;21028;-78
2021/09/07 11:03:16;;;;;;;3.25;2.95;;;;;;;30.11;22.06;98590.70;1776257;79;20128;-77
2021/09/07 11:05:44;;;;;;;4.00;2.75;;;;;;;29.92;23.76;98583.50;1703853;84;21118;-76
2021/09/07 11:08:17;;;;;;;5.03;3.37;;;;;;;30.12;22.30;98596.52;1707807;84;21007;-76
2021/09/07 11:10:53;;;;;;;5.33;2.92;;;;;;;30.43;22.77;98588.75;1708701;83;21107;-76
2021/09/07 11:13:29;;;;;;;3.67;2.87;;;;;;;31.02;24.74;98585.07;1708437;83;21055;-77
2021/09/07 11:16:02;;;;;;;3.80;3.33;;;;;;;31.52;22.43;98583.94;1709090;83;21540;-77
2021/09/07 11:18:32;;;;;;;5.25;3.42;;;;;;;31.73;21.69;98579.38;1709402;84;21091;-75
2021/09/07 11:21:02;;;;;;;4.60;3.37;;;;;;;32.25;22.35;98578.77;1709393;84;21007;-75
2021/09/07 11:23:34;;;;;;;4.42;3.98;;;;;;;32.55;22.05;98576.91;1709225;84;21071;-75
2021/09/07 11:26:10;;;;;;;3.50;2.83;;;;;;;33.00;22.70;98574.09;1709321;84;21074;-76
2021/09/07 11:28:40;;;;;;;5.58;3.20;;;;;;;33.02;21.89;98577.55;1709729;84;21062;-76
2021/09/07 11:31:10;;;;;;;4.03;3.62;;;;;;;33.22;21.04;98570.77;1709027;83;21054;-76
2021/09/07 11:33:39;;;;;;;5.80;3.75;;;;;;;33.58;21.12;98575.27;1709246;84;20986;-75
2021/09/07 11:36:21;;;;;;;3.95;3.20;;;;;;;33.90;22.23;98572.49;1709740;83;21052;-75
2021/09/07 11:38:48;;;;;;;5.60;3.60;;;;;;;33.84;20.34;98576.81;1700036;83;21021;-75
2021/09/07 11:41:22;;;;;;;3.60;3.22;;;;;;;33.76;21.49;98569.15;1693300;84;21055;-75
2021/09/07 11:43:55;;;;;;;3.65;3.15;;;;;;;33.76;20.80;98571.90;1693290;85;21015;-75